createdAt,value
2022-11-22T00:00:35.941Z,2.78
2022-11-22T00:03:02.630Z,2.95
2022-11-22T00:05:29.345Z,2.70
2022-11-22T00:07:56.141Z,2.83
2022-11-22T00:10:22.851Z,2.50
2022-11-22T00:12:49.738Z,2.30
2022-11-22T00:15:16.707Z,2.15
2022-11-22T00:17:43.380Z,2.53
2022-11-22T00:20:13.724Z,2.30
2022-11-22T00:22:44.545Z,2.00
2022-11-22T00:25:12.239Z,2.15
2022-11-22T00:27:38.995Z,2.60
2022-11-22T00:30:06.510Z,2.67
2022-11-22T00:32:33.299Z,1.95
2022-11-22T00:35:00.185Z,2.22
2022-11-22T00:37:26.813Z,2.20
2022-11-22T00:39:53.513Z,2.55
2022-11-22T00:42:20.290Z,2.92
2022-11-22T00:44:47.385Z,3.13
2022-11-22T00:47:14.033Z,2.22
2022-11-22T00:49:40.629Z,1.88
2022-11-22T00:52:07.229Z,1.75
2022-11-22T00:54:33.935Z,1.50
2022-11-22T00:57:00.560Z,2.47
2022-11-22T00:59:27.419Z,2.45
2022-11-22T01:01:54.390Z,1.90
2022-11-22T01:04:21.101Z,2.13
2022-11-22T01:06:47.811Z,2.60
2022-11-22T01:09:20.668Z,2.08
2022-11-22T01:11:47.348Z,1.63
2022-11-22T01:14:14.981Z,3.90
2022-11-22T01:16:42.377Z,2.25
2022-11-22T01:19:09.010Z,2.10
2022-11-22T01:21:35.644Z,2.70
2022-11-22T01:24:02.452Z,2.15
2022-11-22T01:26:29.065Z,2.30
2022-11-22T01:28:55.676Z,2.28
2022-11-22T01:31:22.391Z,2.08
2022-11-22T01:33:49.078Z,2.08
2022-11-22T01:36:15.736Z,2.22
2022-11-22T01:38:42.357Z,2.17
2022-11-22T01:41:08.939Z,2.65
2022-11-22T01:43:35.716Z,2.10
2022-11-22T01:46:06.009Z,2.00
2022-11-22T01:48:51.458Z,2.10
2022-11-22T01:51:20.803Z,1.75
2022-11-22T01:53:47.583Z,1.88
2022-11-22T01:56:18.010Z,2.45
2022-11-22T01:58:49.124Z,1.63
2022-11-22T02:01:15.883Z,1.88
2022-11-22T02:03:47.996Z,1.85
2022-11-22T02:06:15.405Z,1.73
2022-11-22T02:08:57.608Z,2.22
2022-11-22T02:11:29.631Z,2.13
2022-11-22T02:13:59.561Z,2.25
2022-11-22T02:16:26.302Z,2.45
2022-11-22T02:18:53.070Z,3.08
2022-11-22T02:21:19.754Z,3.20
2022-11-22T02:23:52.456Z,2.63
2022-11-22T02:26:19.138Z,2.40
2022-11-22T02:28:45.869Z,2.70
2022-11-22T02:31:35.507Z,3.58
2022-11-22T02:34:02.336Z,1.85
2022-11-22T02:36:33.468Z,2.33
2022-11-22T02:39:01.168Z,2.38
2022-11-22T02:41:28.308Z,2.50
2022-11-22T02:43:55.097Z,2.40
2022-11-22T02:46:23.680Z,2.30
2022-11-22T02:48:50.557Z,2.17
2022-11-22T02:51:20.031Z,1.70
2022-11-22T02:53:48.898Z,2.25
2022-11-22T02:56:17.921Z,1.85
2022-11-22T02:58:45.003Z,4.45
2022-11-22T03:01:13.064Z,1.95
2022-11-22T03:03:39.884Z,2.95
2022-11-22T03:06:06.534Z,2.17
2022-11-22T03:08:33.467Z,2.42
2022-11-22T03:11:00.396Z,2.63
2022-11-22T03:13:27.340Z,3.67
2022-11-22T03:15:53.954Z,2.40
2022-11-22T03:18:20.960Z,2.47
2022-11-22T03:20:47.651Z,2.70
2022-11-22T03:23:14.370Z,2.15
2022-11-22T03:25:41.365Z,1.60
2022-11-22T03:28:08.076Z,2.33
2022-11-22T03:30:34.894Z,2.10
2022-11-22T03:33:01.501Z,2.38
2022-11-22T03:35:28.187Z,1.90
2022-11-22T03:37:54.769Z,2.00
2022-11-22T03:40:21.400Z,2.13
2022-11-22T03:42:48.086Z,2.10
2022-11-22T03:45:14.946Z,2.15
2022-11-22T03:47:41.651Z,2.15
2022-11-22T03:50:08.724Z,2.30
2022-11-22T03:52:35.338Z,2.17
2022-11-22T03:55:02.417Z,1.50
2022-11-22T03:57:29.141Z,2.17
2022-11-22T03:59:55.922Z,4.30
2022-11-22T04:02:22.572Z,1.98
2022-11-22T04:04:49.192Z,2.85
2022-11-22T04:07:15.844Z,2.30
2022-11-22T04:09:42.481Z,2.88
2022-11-22T04:12:09.093Z,2.30
2022-11-22T04:15:04.694Z,3.42
2022-11-22T04:17:48.074Z,1.90
2022-11-22T04:20:37.645Z,2.13
2022-11-22T04:23:07.623Z,1.90
2022-11-22T04:25:36.637Z,1.42
2022-11-22T04:28:04.884Z,1.90
2022-11-22T04:30:50.476Z,1.58
2022-11-22T04:33:17.661Z,1.70
2022-11-22T04:35:45.286Z,1.98
2022-11-22T04:38:12.754Z,2.97
2022-11-22T04:40:39.725Z,1.98
2022-11-22T04:43:25.618Z,1.90
2022-11-22T04:45:52.816Z,1.83
2022-11-22T04:48:19.515Z,2.40
2022-11-22T04:51:05.281Z,1.70
2022-11-22T04:53:32.004Z,2.25
2022-11-22T04:55:58.929Z,2.45
2022-11-22T04:58:25.716Z,2.25
2022-11-22T05:00:52.731Z,2.00
2022-11-22T05:03:19.658Z,2.20
2022-11-22T05:05:46.580Z,2.28
2022-11-22T05:08:13.844Z,1.80
2022-11-22T05:10:59.778Z,2.10
2022-11-22T05:13:38.084Z,2.97
2022-11-22T05:16:07.121Z,2.72
2022-11-22T05:18:34.353Z,2.88
2022-11-22T05:21:05.912Z,2.00
2022-11-22T05:23:51.330Z,1.58
2022-11-22T05:26:18.105Z,2.72
2022-11-22T05:28:44.930Z,2.10
2022-11-22T05:31:13.865Z,1.90
2022-11-22T05:33:43.302Z,2.42
2022-11-22T05:36:10.693Z,1.98
2022-11-22T05:38:38.111Z,3.15
2022-11-22T05:41:06.867Z,1.88
2022-11-22T05:43:33.810Z,2.20
2022-11-22T05:46:24.828Z,2.40
2022-11-22T05:48:53.509Z,1.90
2022-11-22T05:51:23.081Z,1.63
2022-11-22T05:53:49.840Z,1.80
2022-11-22T05:56:24.325Z,2.08
2022-11-22T05:58:51.600Z,2.00
2022-11-22T06:01:23.431Z,1.85
2022-11-22T06:03:50.795Z,2.08
2022-11-22T06:06:18.040Z,2.92
2022-11-22T06:08:47.859Z,2.25
2022-11-22T06:11:16.406Z,2.03
2022-11-22T06:13:44.548Z,1.90
2022-11-22T06:16:11.695Z,1.63
2022-11-22T06:18:38.546Z,1.60
2022-11-22T06:21:10.401Z,2.30
2022-11-22T06:23:37.094Z,2.10
2022-11-22T06:26:06.940Z,2.90
2022-11-22T06:28:35.623Z,2.72
2022-11-22T06:31:07.598Z,1.88
2022-11-22T06:33:34.815Z,2.35
2022-11-22T06:36:09.363Z,1.90
2022-11-22T06:38:36.557Z,3.25
2022-11-22T06:41:05.620Z,1.98
2022-11-22T06:43:33.919Z,1.90
2022-11-22T06:46:02.208Z,3.13
2022-11-22T06:48:34.594Z,2.50
2022-11-22T06:51:01.946Z,2.60
2022-11-22T06:53:46.249Z,1.83
2022-11-22T06:56:18.102Z,2.30
2022-11-22T06:58:45.923Z,1.85
2022-11-22T07:01:15.536Z,2.03
2022-11-22T07:03:42.953Z,2.22
2022-11-22T07:06:11.163Z,1.98
2022-11-22T07:08:38.642Z,2.25
2022-11-22T07:11:08.950Z,1.73
2022-11-22T07:13:36.282Z,2.58
2022-11-22T07:16:05.176Z,2.03
2022-11-22T07:18:32.605Z,2.00
2022-11-22T07:21:08.011Z,2.30
2022-11-22T07:23:39.304Z,4.10
2022-11-22T07:26:06.418Z,1.85
2022-11-22T07:28:33.172Z,2.17
2022-11-22T07:31:01.403Z,3.08
2022-11-22T07:33:28.710Z,1.90
2022-11-22T07:35:55.552Z,2.85
2022-11-22T07:38:22.480Z,2.63
2022-11-22T07:40:49.478Z,2.92
2022-11-22T07:43:16.184Z,2.38
2022-11-22T07:45:42.831Z,2.17
2022-11-22T07:48:09.597Z,1.90
2022-11-22T07:50:39.326Z,2.72
2022-11-22T07:53:06.388Z,2.47
2022-11-22T07:55:33.039Z,2.47
2022-11-22T07:58:00.428Z,2.60
2022-11-22T08:00:27.997Z,2.13
2022-11-22T08:02:55.199Z,2.53
2022-11-22T08:05:22.024Z,2.33
2022-11-22T08:07:50.358Z,1.90
2022-11-22T08:10:17.706Z,3.13
2022-11-22T08:12:45.098Z,2.30
2022-11-22T08:15:13.286Z,2.83
2022-11-22T08:17:40.104Z,2.85
2022-11-22T08:20:09.309Z,2.28
2022-11-22T08:22:39.714Z,2.45
2022-11-22T08:25:12.478Z,2.03
2022-11-22T08:27:44.019Z,2.35
2022-11-22T08:30:11.628Z,2.42
2022-11-22T08:32:38.410Z,3.50
2022-11-22T08:35:05.578Z,2.25
2022-11-22T08:37:32.375Z,2.83
2022-11-22T08:39:59.105Z,2.70
2022-11-22T08:42:25.728Z,1.88
2022-11-22T08:44:52.398Z,2.08
2022-11-22T08:47:19.146Z,2.42
2022-11-22T08:49:45.776Z,2.10
2022-11-22T08:52:12.907Z,2.45
2022-11-22T08:54:39.798Z,1.80
2022-11-22T08:57:06.605Z,3.63
2022-11-22T08:59:34.036Z,2.47
2022-11-22T09:02:01.063Z,2.33
2022-11-22T09:04:27.838Z,2.85
2022-11-22T09:09:41.215Z,2.60
2022-11-22T09:12:07.960Z,2.50
2022-11-22T09:14:34.755Z,3.00
2022-11-22T09:17:01.494Z,2.13
2022-11-22T09:19:28.528Z,2.30
2022-11-22T09:21:55.396Z,1.83
2022-11-22T09:24:22.065Z,2.00
2022-11-22T09:26:48.858Z,2.00
2022-11-22T09:29:16.053Z,2.40
2022-11-22T09:31:42.886Z,2.25
2022-11-22T09:34:09.555Z,2.33
2022-11-22T09:36:36.426Z,2.25
2022-11-22T09:39:03.221Z,1.98
2022-11-22T09:41:48.458Z,2.10
2022-11-22T09:44:31.073Z,2.15
2022-11-22T09:47:09.877Z,2.87
2022-11-22T09:49:48.627Z,1.63
2022-11-22T09:52:39.909Z,1.98
2022-11-22T09:55:24.144Z,2.20
2022-11-22T09:58:22.108Z,2.08
2022-11-22T10:00:52.228Z,1.80
2022-11-22T10:03:49.034Z,1.75
2022-11-22T10:06:27.531Z,1.65
2022-11-22T10:09:18.326Z,1.83
2022-11-22T10:11:50.983Z,1.52
2022-11-22T10:14:30.565Z,1.42
2022-11-22T10:17:20.581Z,1.50
2022-11-22T10:20:18.051Z,1.40
2022-11-22T10:22:45.113Z,1.33
2022-11-22T10:25:27.642Z,1.42
2022-11-22T10:28:05.677Z,1.60
2022-11-22T10:30:41.599Z,1.30
2022-11-22T10:33:45.067Z,1.38
2022-11-22T10:36:32.371Z,1.77
2022-11-22T10:39:08.679Z,1.50
2022-11-22T10:41:46.521Z,1.50
2022-11-22T10:44:48.621Z,1.50
2022-11-22T10:47:41.533Z,2.05
2022-11-22T10:50:20.848Z,1.87
2022-11-22T10:53:06.350Z,1.77
2022-11-22T10:55:33.018Z,2.10
2022-11-22T10:58:21.424Z,1.55
2022-11-22T11:00:57.220Z,1.70
2022-11-22T11:03:45.926Z,1.73
2022-11-22T11:06:56.883Z,1.50
2022-11-22T11:10:09.569Z,2.08
2022-11-22T11:12:27.956Z,2.45
2022-11-22T11:15:05.172Z,2.63
2022-11-22T11:17:37.760Z,2.80
2022-11-22T11:20:16.361Z,3.20
2022-11-22T11:25:40.528Z,2.72
2022-11-22T11:28:18.991Z,2.38
2022-11-22T11:30:58.853Z,2.50
2022-11-22T11:33:35.018Z,2.10
2022-11-22T11:36:13.840Z,1.92
2022-11-22T11:38:43.494Z,1.33
2022-11-22T11:41:19.079Z,3.17
2022-11-22T11:43:46.604Z,2.13
2022-11-22T11:46:20.741Z,2.00
2022-11-22T11:48:49.689Z,2.08
2022-11-22T11:51:22.729Z,2.10
2022-11-22T11:54:02.425Z,2.17
2022-11-22T11:56:33.970Z,2.33
2022-11-22T11:59:07.334Z,2.13
2022-11-22T12:01:38.968Z,2.03
2022-11-22T12:04:14.820Z,2.10
2022-11-22T12:06:41.497Z,1.90
2022-11-22T12:09:43.492Z,2.40
2022-11-22T12:12:35.817Z,1.95
2022-11-22T12:15:11.601Z,2.30
2022-11-22T12:18:04.131Z,1.80
2022-11-22T12:20:43.738Z,1.70
2022-11-22T12:23:24.356Z,1.92
2022-11-22T12:25:55.725Z,2.00
2022-11-22T12:28:25.063Z,1.60
2022-11-22T12:31:09.353Z,2.20
2022-11-22T12:33:44.255Z,1.80
2022-11-22T12:36:18.065Z,2.10
2022-11-22T12:38:47.379Z,2.22
2022-11-22T12:41:18.230Z,1.92
2022-11-22T12:43:57.936Z,1.75
2022-11-22T12:46:30.872Z,2.22
2022-11-22T12:49:05.287Z,2.15
2022-11-22T12:51:45.609Z,2.75
2022-11-22T12:54:20.261Z,2.83
2022-11-22T12:56:54.765Z,2.67
2022-11-22T12:59:47.630Z,3.10
2022-11-22T13:02:39.697Z,2.70
2022-11-22T13:05:13.819Z,2.15
2022-11-22T13:07:46.744Z,2.30
2022-11-22T13:10:22.543Z,3.17
2022-11-22T13:12:51.148Z,2.80
2022-11-22T13:15:33.726Z,3.55
2022-11-22T13:18:00.948Z,2.53
2022-11-22T13:20:42.724Z,2.30
2022-11-22T13:23:50.189Z,2.45
2022-11-22T13:26:30.500Z,2.50
2022-11-22T13:28:57.863Z,2.20
2022-11-22T13:31:24.749Z,2.95
2022-11-22T13:34:00.350Z,3.00
2022-11-22T13:36:29.981Z,3.28
2022-11-22T13:39:02.602Z,2.65
2022-11-22T13:41:42.207Z,2.63
2022-11-22T13:44:24.079Z,2.80
2022-11-22T13:46:50.668Z,2.25
2022-11-22T13:49:49.115Z,2.00
2022-11-22T13:52:15.989Z,2.50
2022-11-22T13:54:48.499Z,2.33
2022-11-22T13:57:37.574Z,2.20
2022-11-22T14:00:14.038Z,2.25
2022-11-22T14:02:47.485Z,2.60
2022-11-22T14:05:35.451Z,1.58
2022-11-22T14:08:06.307Z,1.77
2022-11-22T14:10:37.574Z,1.63
2022-11-22T14:13:09.387Z,1.33
2022-11-22T14:15:57.847Z,1.70
2022-11-22T14:18:40.896Z,1.40
2022-11-22T14:21:30.528Z,2.15
2022-11-22T14:24:06.427Z,1.60
2022-11-22T14:26:52.051Z,1.60
2022-11-22T14:29:50.755Z,1.85
2022-11-22T14:32:23.302Z,1.45
2022-11-22T14:35:18.934Z,1.70
2022-11-22T14:37:48.650Z,1.45
2022-11-22T14:40:36.748Z,1.70
2022-11-22T14:43:32.513Z,2.28
2022-11-22T14:46:24.541Z,1.95
2022-11-22T14:49:03.395Z,2.40
2022-11-22T14:51:32.673Z,2.28
2022-11-22T14:54:11.278Z,1.95
2022-11-22T14:56:37.961Z,1.77
2022-11-22T14:59:33.535Z,1.92
2022-11-22T15:02:41.640Z,4.43
2022-11-22T15:09:12.130Z,2.60
2022-11-22T15:09:23.877Z,4.10
2022-11-22T15:11:54.978Z,2.13
2022-11-22T15:14:54.086Z,2.28
2022-11-22T15:57:45.529Z,2.15
2022-11-22T16:00:43.832Z,2.35
2022-11-22T16:03:22.865Z,2.28
2022-11-22T16:06:05.856Z,1.88
2022-11-22T16:08:36.793Z,2.28
2022-11-22T16:11:04.440Z,2.38
2022-11-22T16:13:36.496Z,3.38
2022-11-22T16:16:13.468Z,2.70
2022-11-22T16:18:41.679Z,3.10
2022-11-22T16:21:11.648Z,3.30
2022-11-22T16:23:39.885Z,2.95
2022-11-22T16:26:25.230Z,3.25
2022-11-22T16:28:53.589Z,5.00
2022-11-22T16:31:26.426Z,3.95
2022-11-22T16:33:54.112Z,3.70
2022-11-22T16:36:23.440Z,3.75
2022-11-22T16:38:50.207Z,3.53
2022-11-22T16:41:28.313Z,7.10
2022-11-22T16:44:11.719Z,5.13
2022-11-22T16:46:39.958Z,6.00
2022-11-22T16:49:17.579Z,5.50
2022-11-22T16:51:44.886Z,5.00
2022-11-22T16:54:15.493Z,5.32
2022-11-22T16:56:42.634Z,4.45
2022-11-22T16:59:12.703Z,5.82
2022-11-22T17:01:42.427Z,6.20
2022-11-22T17:04:29.460Z,4.65
2022-11-22T17:06:56.141Z,4.80
2022-11-22T17:09:22.782Z,9.18
2022-11-22T17:11:49.687Z,7.38
2022-11-22T17:14:18.329Z,6.80
2022-11-22T17:16:46.040Z,6.63
2022-11-22T17:22:00.935Z,8.38
2022-11-22T17:24:27.753Z,7.22
2022-11-22T17:26:54.538Z,8.82
2022-11-22T17:32:13.542Z,5.78
2022-11-22T17:34:40.257Z,5.20
2022-11-22T17:37:15.802Z,4.82
2022-11-22T17:39:42.429Z,3.90
2022-11-22T17:42:09.093Z,3.60
2022-11-22T17:44:35.764Z,3.03
2022-11-22T17:47:02.471Z,3.10
2022-11-22T17:49:29.358Z,3.70
2022-11-22T17:51:56.187Z,6.47
2022-11-22T17:54:23.535Z,4.18
2022-11-22T17:56:50.263Z,4.20
2022-11-22T17:59:16.960Z,3.97
2022-11-22T18:01:43.672Z,3.72
2022-11-22T18:04:10.754Z,3.83
2022-11-22T18:06:37.409Z,4.25
2022-11-22T18:09:04.457Z,9.15
2022-11-22T18:11:31.434Z,6.88
2022-11-22T18:13:58.157Z,9.27
2022-11-22T18:16:28.651Z,7.65
2022-11-22T18:18:57.803Z,7.72
2022-11-22T18:21:26.678Z,10.10
2022-11-22T18:23:53.314Z,13.73
2022-11-22T18:31:54.431Z,8.77
2022-11-22T18:34:24.891Z,8.43
2022-11-22T18:37:00.266Z,6.82
2022-11-22T18:39:30.019Z,6.55
2022-11-22T18:41:56.970Z,5.65
2022-11-22T18:44:23.619Z,7.65
2022-11-22T18:46:50.408Z,8.00
2022-11-22T18:49:17.113Z,6.57
2022-11-22T18:51:43.891Z,6.63
2022-11-22T18:54:10.717Z,7.45
2022-11-22T18:56:40.332Z,7.80
2022-11-22T18:59:08.371Z,7.20
2022-11-22T19:01:35.224Z,5.63
2022-11-22T19:04:03.207Z,5.40
2022-11-22T19:06:30.560Z,5.63
2022-11-22T19:08:57.949Z,5.45
2022-11-22T19:11:25.548Z,5.47
2022-11-22T19:13:52.459Z,5.00
2022-11-22T19:16:22.635Z,4.82
2022-11-22T19:18:50.132Z,5.72
2022-11-22T19:21:19.599Z,5.45
2022-11-22T19:23:46.988Z,9.55
2022-11-22T19:26:15.774Z,8.70
2022-11-22T19:28:42.966Z,6.53
2022-11-22T19:31:13.449Z,6.38
2022-11-22T19:33:40.252Z,9.80
2022-11-22T19:36:14.348Z,8.90
2022-11-22T19:38:41.845Z,6.10
2022-11-22T19:41:14.183Z,5.70
2022-11-22T19:43:41.124Z,6.30
2022-11-22T19:46:07.979Z,5.68
2022-11-22T19:48:35.883Z,5.82
2022-11-22T19:51:11.105Z,7.60
2022-11-22T19:53:39.006Z,6.47
2022-11-22T19:56:06.982Z,7.55
2022-11-22T19:58:34.175Z,8.13
2022-11-22T20:01:08.445Z,7.32
2022-11-22T20:03:36.149Z,7.05
2022-11-22T20:06:05.180Z,10.70
2022-11-22T20:08:32.220Z,9.25
2022-11-22T20:11:03.561Z,8.13
2022-11-22T20:13:33.421Z,9.27
2022-11-22T20:16:24.748Z,8.18
2022-11-22T20:18:58.567Z,7.80
2022-11-22T20:21:26.967Z,7.40
2022-11-22T20:23:54.326Z,6.68
2022-11-22T20:26:22.575Z,6.68
2022-11-22T20:28:57.903Z,6.68
2022-11-22T20:31:25.029Z,6.22
2022-11-22T20:33:53.876Z,5.68
2022-11-22T20:36:20.677Z,6.03
2022-11-22T20:38:49.004Z,5.15
2022-11-22T20:41:17.344Z,5.70
2022-11-22T20:43:44.808Z,5.07
2022-11-22T20:46:18.859Z,5.15
2022-11-22T20:48:47.547Z,5.18
2022-11-22T20:51:17.207Z,4.63
2022-11-22T20:53:44.446Z,4.35
2022-11-22T20:56:12.248Z,9.02
2022-11-22T20:58:38.960Z,12.10
2022-11-22T21:01:07.497Z,6.82
2022-11-22T21:03:38.437Z,8.32
2022-11-22T21:06:06.283Z,6.20
2022-11-22T21:08:34.235Z,6.75
2022-11-22T21:11:20.600Z,5.78
2022-11-22T21:13:50.469Z,5.38
2022-11-22T21:16:24.404Z,4.68
2022-11-22T21:18:55.491Z,4.68
2022-11-22T21:21:23.561Z,4.38
2022-11-22T21:23:52.309Z,4.45
2022-11-22T21:26:19.575Z,4.13
2022-11-22T21:28:46.484Z,3.60
2022-11-22T21:31:13.272Z,3.88
2022-11-22T21:33:40.005Z,4.38
2022-11-22T21:36:07.263Z,4.85
2022-11-22T21:38:40.552Z,5.22
2022-11-22T21:41:38.244Z,5.30
2022-11-22T21:43:57.057Z,4.30
2022-11-22T21:46:25.162Z,7.07
2022-11-22T21:48:52.030Z,5.53
2022-11-22T21:51:18.979Z,4.78
2022-11-22T21:53:45.628Z,5.38
2022-11-22T21:56:12.539Z,4.45
2022-11-22T21:58:39.217Z,4.88
2022-11-22T22:01:10.849Z,4.57
2022-11-22T22:03:40.521Z,4.03
2022-11-22T22:06:07.686Z,4.20
2022-11-22T22:08:34.511Z,3.63
2022-11-22T22:11:04.078Z,4.35
2022-11-22T22:13:30.997Z,4.47
2022-11-22T22:15:59.820Z,4.55
2022-11-22T22:18:33.051Z,5.18
2022-11-22T22:23:31.078Z,4.82
2022-11-22T22:26:02.458Z,6.20
2022-11-22T22:28:34.291Z,5.50
2022-11-22T22:31:04.995Z,5.93
2022-11-22T22:33:31.925Z,7.68
2022-11-22T22:35:59.652Z,7.20
2022-11-22T22:38:26.718Z,6.75
2022-11-22T22:40:57.814Z,6.85
2022-11-22T22:43:25.636Z,7.38
2022-11-22T22:45:52.421Z,6.93
2022-11-22T22:48:19.645Z,6.88
2022-11-22T22:50:46.477Z,6.13
2022-11-22T22:53:13.434Z,6.28
2022-11-22T22:55:40.198Z,6.47
2022-11-22T22:58:10.392Z,6.70
2022-11-22T23:00:38.728Z,6.25
2022-11-22T23:03:05.402Z,5.55
2022-11-22T23:05:32.076Z,6.25
2022-11-22T23:07:59.156Z,5.85
2022-11-22T23:10:25.961Z,4.00
2022-11-22T23:12:52.563Z,4.50
2022-11-22T23:15:33.000Z,3.83
2022-11-22T23:18:05.887Z,3.15
2022-11-22T23:20:32.742Z,2.45
2022-11-22T23:22:59.374Z,3.17
2022-11-22T23:25:26.236Z,5.53
2022-11-22T23:27:52.873Z,9.65
2022-11-22T23:30:19.513Z,6.15
2022-11-22T23:32:46.221Z,7.53
2022-11-22T23:35:12.902Z,8.13
2022-11-22T23:37:39.600Z,5.55
2022-11-22T23:40:07.086Z,5.88
2022-11-22T23:42:33.771Z,5.72
2022-11-22T23:45:00.554Z,5.40
2022-11-22T23:47:27.148Z,5.47
2022-11-22T23:49:53.756Z,4.22
2022-11-22T23:52:20.545Z,4.30
2022-11-22T23:54:47.310Z,6.47
2022-11-22T23:57:13.965Z,4.28
2022-11-22T23:59:40.614Z,4.38
